Time;durP1;ratioP1;P1;durP2;ratioP2;P2;SDS_P1;SDS_P2;PMS_P1;PMS_P2;Temp;Humidity;BMP_temperature;BMP_pressure;BME280_temperature;BME280_humidity;BME280_pressure;Samples;Min_cycle;Max_cycle;Signal;HPM_P1;HPM_P2
2023/03/13 00:00:35;;;;;;;33.50;6.13;;;9.20;99.90;;;;;;5103476;27;20067;-79
2023/03/13 00:03:00;;;;;;;34.78;6.95;;;8.20;99.90;;;;;;5127792;27;20042;-79
2023/03/13 00:05:26;;;;;;;41.17;6.47;;;8.20;99.90;;;;;;5091791;27;20039;-79
2023/03/13 00:07:51;;;;;;;31.90;6.10;;;8.20;99.90;;;;;;5084763;27;20039;-79
2023/03/13 00:10:17;;;;;;;31.48;5.97;;;8.30;99.90;;;;;;5107767;27;20048;-79
2023/03/13 00:12:43;;;;;;;32.92;6.10;;;8.20;99.90;;;;;;5107165;27;20046;-79
2023/03/13 00:15:11;;;;;;;31.23;6.32;;;8.20;99.90;;;;;;5106743;27;20047;-78
2023/03/13 00:17:36;;;;;;;33.05;5.55;;;8.20;99.90;;;;;;5087800;27;20092;-78
2023/03/13 00:20:02;;;;;;;25.13;5.30;;;8.20;99.90;;;;;;5105400;27;20039;-78
2023/03/13 00:22:31;;;;;;;29.30;6.07;;;8.20;99.90;;;;;;5082511;27;20074;-78
2023/03/13 00:24:57;;;;;;;27.77;6.00;;;8.20;99.90;;;;;;5084279;27;21229;-78
2023/03/13 00:27:26;;;;;;;32.10;5.65;;;8.10;99.90;;;;;;5082088;27;20047;-77
2023/03/13 00:29:52;;;;;;;32.05;6.60;;;8.20;99.90;;;;;;5101936;27;20681;-78
2023/03/13 00:32:20;;;;;;;40.60;6.82;;;8.20;99.90;;;;;;5090339;27;20066;-78
2023/03/13 00:34:46;;;;;;;32.47;6.25;;;8.20;99.90;;;;;;5094170;27;20583;-78
2023/03/13 00:37:16;;;;;;;40.92;6.55;;;8.20;99.90;;;;;;5108719;27;20478;-77
2023/03/13 00:39:42;;;;;;;31.45;6.60;;;8.20;99.90;;;;;;5087489;27;20084;-79
2023/03/13 00:42:07;;;;;;;42.22;6.43;;;8.20;99.90;;;;;;5087407;27;20392;-78
2023/03/13 00:44:33;;;;;;;35.65;6.80;;;8.20;99.90;;;;;;5090946;27;20062;-78
2023/03/13 00:46:59;;;;;;;32.95;6.15;;;8.10;99.90;;;;;;5087860;27;20027;-78
2023/03/13 00:49:25;;;;;;;36.00;5.80;;;8.40;99.90;;;;;;5089207;27;20042;-80
2023/03/13 00:51:50;;;;;;;41.03;7.85;;;8.10;99.90;;;;;;5105980;27;20048;-79
2023/03/13 00:54:16;;;;;;;40.90;6.68;;;8.10;99.90;;;;;;5089449;27;20039;-79
2023/03/13 00:56:41;;;;;;;34.80;6.72;;;8.20;99.90;;;;;;5125641;27;20126;-79
2023/03/13 00:59:10;;;;;;;30.38;5.97;;;9.40;99.90;;;;;;5109248;27;20046;-79
2023/03/13 01:01:36;;;;;;;44.33;6.50;;;8.20;99.90;;;;;;5108450;27;20486;-77
2023/03/13 01:04:07;;;;;;;38.63;6.28;;;8.30;99.90;;;;;;5111475;27;20507;-77
2023/03/13 01:06:35;;;;;;;38.58;7.68;;;8.20;99.90;;;;;;5121385;27;20082;-77
2023/03/13 01:09:02;;;;;;;29.08;6.30;;;9.60;99.90;;;;;;5125884;27;20100;-77
2023/03/13 01:11:31;;;;;;;29.35;5.57;;;8.20;99.90;;;;;;5094937;27;20075;-77
2023/03/13 01:13:59;;;;;;;35.72;6.28;;;8.20;99.90;;;;;;5108045;27;20055;-78
2023/03/13 01:16:27;;;;;;;42.08;7.35;;;9.10;99.90;;;;;;5104604;27;20041;-78
2023/03/13 01:18:55;;;;;;;35.08;5.60;;;8.20;99.90;;;;;;5096363;27;20083;-78
2023/03/13 01:21:22;;;;;;;36.40;6.13;;;8.40;99.90;;;;;;5115528;27;20147;-78
2023/03/13 01:23:50;;;;;;;29.73;5.32;;;8.30;99.90;;;;;;5111568;27;20418;-78
2023/03/13 01:26:16;;;;;;;32.53;6.75;;;8.30;99.90;;;;;;5097329;27;20027;-77
2023/03/13 01:28:42;;;;;;;32.15;7.32;;;8.30;99.90;;;;;;5099289;27;20081;-78
2023/03/13 01:31:19;;;;;;;28.00;6.22;;;8.30;99.90;;;;;;5114916;27;20055;-78
2023/03/13 01:33:46;;;;;;;26.98;5.85;;;8.30;99.90;;;;;;5104236;27;20046;-78
2023/03/13 01:36:13;;;;;;;26.88;5.30;;;9.50;99.90;;;;;;5112201;27;20458;-78
2023/03/13 01:38:39;;;;;;;31.58;5.95;;;8.30;99.90;;;;;;5134691;27;20107;-78
2023/03/13 01:41:07;;;;;;;30.70;6.40;;;8.30;99.90;;;;;;5113679;27;20050;-78
2023/03/13 01:43:35;;;;;;;29.38;5.22;;;8.30;99.90;;;;;;5133667;27;20066;-78
2023/03/13 01:46:09;;;;;;;29.98;5.93;;;8.90;99.90;;;;;;5112440;27;20055;-78
2023/03/13 01:48:53;;;;;;;29.92;6.25;;;8.40;99.90;;;;;;5106021;27;20035;-78
2023/03/13 01:51:42;;;;;;;34.05;5.60;;;8.30;99.90;;;;;;5096280;27;20065;-78
2023/03/13 01:54:10;;;;;;;26.77;5.85;;;8.30;99.90;;;;;;5099668;27;20055;-78
2023/03/13 01:56:56;;;;;;;32.03;6.43;;;8.30;99.90;;;;;;5106344;27;20046;-78
2023/03/13 01:59:46;;;;;;;28.38;5.57;;;8.30;99.90;;;;;;5106212;27;20705;-78
2023/03/13 02:02:13;;;;;;;27.67;5.43;;;9.20;99.90;;;;;;5105902;27;20401;-78
2023/03/13 02:04:46;;;;;;;36.42;6.28;;;8.40;99.90;;;;;;5105108;27;20598;-78
2023/03/13 02:07:17;;;;;;;32.08;5.25;;;8.40;99.90;;;;;;5100346;27;20072;-78
2023/03/13 02:09:47;;;;;;;23.63;4.82;;;8.40;99.90;;;;;;5106454;27;20498;-78
2023/03/13 02:12:17;;;;;;;25.23;5.53;;;8.60;99.90;;;;;;5121016;27;20039;-78
2023/03/13 02:14:45;;;;;;;30.25;5.55;;;8.40;99.90;;;;;;5127713;27;20055;-78
2023/03/13 02:17:12;;;;;;;26.50;5.88;;;8.40;99.90;;;;;;5089555;27;20087;-79
2023/03/13 02:19:47;;;;;;;21.42;4.68;;;8.40;99.90;;;;;;5103858;27;20493;-78
2023/03/13 02:22:32;;;;;;;;;;;9.80;99.90;;;;;;5122699;27;20050;-78
2023/03/13 02:25:22;;;;;;;27.90;5.17;;;8.40;99.90;;;;;;5123169;27;20255;-78
2023/03/13 02:27:49;;;;;;;26.48;5.43;;;8.40;99.90;;;;;;5087686;27;20057;-80
2023/03/13 02:30:15;;;;;;;25.05;4.85;;;8.40;99.90;;;;;;5102574;27;20046;-79
2023/03/13 02:32:42;;;;;;;16.48;3.78;;;8.40;99.90;;;;;;5121714;27;20035;-80
2023/03/13 02:35:12;;;;;;;19.70;4.80;;;9.40;99.90;;;;;;5120883;27;20561;-79
2023/03/13 02:37:40;;;;;;;22.13;3.83;;;9.60;99.90;;;;;;5121394;27;20051;-80
2023/03/13 02:40:10;;;;;;;16.58;4.13;;;8.40;99.90;;;;;;5122222;27;20061;-79
2023/03/13 02:42:39;;;;;;;12.93;3.70;;;8.50;99.90;;;;;;5121288;27;20043;-79
2023/03/13 02:45:05;;;;;;;14.60;3.72;;;9.80;99.90;;;;;;5121948;27;20062;-80
2023/03/13 02:47:31;;;;;;;11.88;4.07;;;8.40;99.90;;;;;;5103055;27;20058;-80
2023/03/13 02:49:56;;;;;;;24.05;4.30;;;8.40;99.90;;;;;;5106293;27;20039;-80
2023/03/13 02:52:32;;;;;;;14.48;3.80;;;9.40;99.90;;;;;;5102094;28;20393;-80
2023/03/13 02:55:23;;;;;;;11.32;3.53;;;8.80;99.90;;;;;;5104396;27;20077;-80
2023/03/13 02:57:49;;;;;;;12.75;3.47;;;8.50;99.90;;;;;;5126700;27;20074;-80
2023/03/13 03:00:16;;;;;;;8.43;3.33;;;9.90;99.90;;;;;;5112872;27;20086;-80
2023/03/13 03:02:42;;;;;;;12.98;4.10;;;8.40;99.90;;;;;;5113491;27;20105;-80
2023/03/13 03:05:08;;;;;;;12.93;3.38;;;9.60;99.90;;;;;;5092069;27;20394;-80
2023/03/13 03:07:34;;;;;;;7.57;2.67;;;8.50;99.90;;;;;;5123672;27;20398;-80
2023/03/13 03:10:00;;;;;;;10.35;2.97;;;8.60;99.90;;;;;;5113130;27;20046;-80
2023/03/13 03:12:25;;;;;;;8.57;2.78;;;8.60;99.90;;;;;;5112247;27;20555;-80
2023/03/13 03:14:51;;;;;;;8.60;2.80;;;9.90;99.90;;;;;;5096774;27;20117;-80
2023/03/13 03:17:16;;;;;;;12.02;2.45;;;8.90;99.90;;;;;;5095809;27;20045;-81
2023/03/13 03:19:42;;;;;;;9.73;2.92;;;9.70;99.90;;;;;;5137081;27;20092;-80
2023/03/13 03:22:09;;;;;;;6.68;2.15;;;8.70;99.90;;;;;;5100390;27;20046;-81
2023/03/13 03:24:34;;;;;;;9.40;2.60;;;8.60;99.90;;;;;;5101387;27;20067;-81
2023/03/13 03:27:00;;;;;;;7.40;2.45;;;9.60;99.90;;;;;;5115783;27;20078;-80
2023/03/13 03:29:26;;;;;;;8.07;2.30;;;9.80;99.90;;;;;;5117145;27;20113;-81
2023/03/13 03:31:52;;;;;;;4.78;2.10;;;8.70;99.90;;;;;;5135592;27;20042;-81
2023/03/13 03:34:18;;;;;;;9.43;2.95;;;8.70;99.90;;;;;;5096126;27;20057;-80
2023/03/13 03:36:44;;;;;;;9.63;3.20;;;10.00;99.90;;;;;;5133026;27;20077;-80
2023/03/13 03:39:10;;;;;;;4.28;2.22;;;8.80;99.90;;;;;;5113951;27;20086;-80
2023/03/13 03:41:36;;;;;;;6.72;2.55;;;8.70;99.90;;;;;;5116474;27;20053;-80
2023/03/13 03:44:02;;;;;;;5.93;2.17;;;8.80;99.90;;;;;;5098872;27;20043;-81
2023/03/13 03:46:28;;;;;;;8.13;2.45;;;8.00;99.90;;;;;;5113236;27;20066;-81
2023/03/13 03:48:54;;;;;;;3.53;1.83;;;8.90;99.90;;;;;;5127350;27;20515;-80
2023/03/13 03:51:20;;;;;;;4.53;2.53;;;8.90;99.90;;;;;;5119725;27;20135;-81
2023/03/13 03:53:46;;;;;;;3.85;2.50;;;8.90;99.90;;;;;;5112161;27;20046;-81
2023/03/13 03:56:12;;;;;;;7.43;2.40;;;10.10;99.90;;;;;;5133149;27;20095;-81
2023/03/13 03:58:38;;;;;;;4.22;2.10;;;8.90;99.90;;;;;;5130889;27;20094;-81
2023/03/13 04:01:04;;;;;;;6.50;2.22;;;9.00;99.90;;;;;;5123564;27;20513;-80
2023/03/13 04:03:29;;;;;;;4.65;2.35;;;9.00;99.90;;;;;;5096456;27;20114;-81
2023/03/13 04:05:55;;;;;;;4.65;2.63;;;9.00;99.90;;;;;;5108806;27;20115;-80
2023/03/13 04:08:21;;;;;;;2.78;2.28;;;9.00;99.90;;;;;;5114299;27;20047;-80
2023/03/13 04:10:47;;;;;;;3.55;2.15;;;9.00;99.90;;;;;;5112628;27;20120;-81
2023/03/13 04:13:13;;;;;;;2.78;1.90;;;9.10;99.90;;;;;;5116229;27;20039;-80
2023/03/13 04:15:39;;;;;;;2.83;2.55;;;9.20;99.90;;;;;;5130737;27;20039;-81
2023/03/13 04:18:05;;;;;;;3.70;2.80;;;9.20;99.90;;;;;;5107838;27;20043;-80
2023/03/13 04:20:31;;;;;;;6.82;3.25;;;9.20;99.90;;;;;;5131315;27;20572;-81
2023/03/13 04:22:57;;;;;;;4.72;3.95;;;9.30;99.90;;;;;;5112325;27;20036;-81
2023/03/13 04:25:25;;;;;;;4.15;3.30;;;10.70;99.90;;;;;;5110106;27;20054;-81
2023/03/13 04:27:51;;;;;;;4.70;3.90;;;10.50;99.90;;;;;;5119545;27;20042;-80
2023/03/13 04:30:17;;;;;;;5.63;4.20;;;10.90;99.90;;;;;;5094856;27;20039;-81
2023/03/13 04:32:42;;;;;;;5.82;4.35;;;10.10;99.90;;;;;;5086545;27;20043;-81
2023/03/13 04:35:08;;;;;;;12.80;6.20;;;9.60;99.90;;;;;;5093173;27;20039;-81
2023/03/13 04:37:34;;;;;;;7.75;5.40;;;9.80;99.90;;;;;;5093697;27;20130;-80
2023/03/13 04:40:00;;;;;;;10.88;5.28;;;9.70;99.90;;;;;;5099116;27;20142;-81
2023/03/13 04:42:26;;;;;;;7.05;5.60;;;9.70;99.90;;;;;;5114328;27;20034;-81
2023/03/13 04:44:52;;;;;;;7.68;6.18;;;11.00;99.90;;;;;;5116760;27;20084;-81
2023/03/13 04:47:18;;;;;;;7.32;6.15;;;10.00;99.90;;;;;;5130597;27;20039;-81
2023/03/13 04:49:44;;;;;;;8.00;6.40;;;9.90;99.90;;;;;;5112694;27;20042;-81
2023/03/13 04:52:09;;;;;;;18.13;7.18;;;9.90;99.90;;;;;;5111744;27;20098;-81
2023/03/13 04:54:35;;;;;;;7.45;6.85;;;10.20;99.90;;;;;;5111156;27;20130;-80
2023/03/13 04:57:01;;;;;;;11.38;5.90;;;10.00;99.90;;;;;;5122491;27;20035;-81
2023/03/13 04:59:27;;;;;;;7.03;5.78;;;10.90;99.90;;;;;;5110993;27;20451;-81
2023/03/13 05:01:52;;;;;;;6.03;5.25;;;10.10;99.90;;;;;;5122620;27;20092;-81
2023/03/13 05:04:18;;;;;;;7.30;5.03;;;10.70;99.90;;;;;;5094529;27;20051;-81
2023/03/13 05:06:43;;;;;;;12.38;5.53;;;10.30;99.90;;;;;;5111302;27;20035;-81
2023/03/13 05:09:09;;;;;;;8.60;5.53;;;10.40;99.90;;;;;;5128938;27;20035;-81
2023/03/13 05:11:35;;;;;;;11.77;4.90;;;10.40;99.90;;;;;;5107174;27;20575;-80
2023/03/13 05:14:01;;;;;;;10.25;5.97;;;10.70;99.90;;;;;;5128230;27;20066;-81
2023/03/13 05:16:26;;;;;;;9.40;4.45;;;11.80;99.90;;;;;;5107777;28;20118;-80
2023/03/13 05:18:52;;;;;;;10.10;4.38;;;10.90;99.90;;;;;;5110270;27;20174;-81
2023/03/13 05:21:18;;;;;;;13.80;5.43;;;10.70;99.90;;;;;;5130086;27;20030;-80
2023/03/13 05:23:43;;;;;;;13.15;3.53;;;10.70;99.90;;;;;;5131540;27;20119;-80
2023/03/13 05:26:09;;;;;;;14.23;4.78;;;10.90;99.90;;;;;;5129014;27;20038;-80
2023/03/13 05:28:35;;;;;;;4.82;2.40;;;10.80;99.90;;;;;;5133387;27;20031;-80
2023/03/13 05:31:00;;;;;;;9.32;3.88;;;10.90;99.90;;;;;;5086623;28;20039;-80
2023/03/13 05:33:26;;;;;;;9.73;4.20;;;12.20;99.90;;;;;;5094423;27;20397;-80
2023/03/13 05:35:51;;;;;;;8.88;4.35;;;11.40;99.90;;;;;;5123327;27;20118;-81
2023/03/13 05:38:17;;;;;;;12.45;3.78;;;12.40;99.90;;;;;;5127377;27;20058;-81
2023/03/13 05:40:43;;;;;;;9.55;3.50;;;11.00;99.90;;;;;;5111717;27;20054;-82
2023/03/13 05:43:08;;;;;;;7.38;3.65;;;12.60;99.90;;;;;;5096786;27;20039;-85
2023/03/13 05:45:34;;;;;;;11.40;3.42;;;11.00;99.90;;;;;;5097487;27;20042;-83
2023/03/13 05:48:00;;;;;;;10.77;2.75;;;11.00;99.90;;;;;;5112445;27;20043;-82
2023/03/13 05:50:26;;;;;;;6.63;2.92;;;11.50;99.90;;;;;;5114372;27;20095;-81
2023/03/13 05:52:51;;;;;;;11.82;3.42;;;11.10;99.90;;;;;;5116616;27;20054;-82
2023/03/13 05:55:17;;;;;;;7.50;3.10;;;11.10;99.90;;;;;;5113270;27;20030;-82
2023/03/13 05:57:46;;;;;;;10.25;2.88;;;11.70;99.90;;;;;;5096686;27;20067;-84
2023/03/13 06:00:14;;;;;;;9.73;2.38;;;12.40;99.90;;;;;;5099777;27;20054;-86
2023/03/13 06:02:40;;;;;;;8.13;2.30;;;11.30;99.90;;;;;;5096005;27;20445;-88
2023/03/13 06:05:07;;;;;;;9.65;3.22;;;12.80;99.90;;;;;;5114988;27;20057;-84
2023/03/13 06:07:33;;;;;;;15.20;3.75;;;10.20;99.90;;;;;;5110059;27;20050;-85
2023/03/13 06:09:58;;;;;;;12.35;3.67;;;11.20;99.90;;;;;;5082972;27;20042;-86
2023/03/13 06:12:24;;;;;;;14.15;3.60;;;11.20;99.90;;;;;;5094061;27;20046;-83
2023/03/13 06:14:50;;;;;;;7.78;3.25;;;11.00;99.90;;;;;;5106999;27;20053;-83
2023/03/13 06:17:15;;;;;;;10.60;3.95;;;12.50;99.90;;;;;;5106443;28;20480;-83
2023/03/13 06:19:41;;;;;;;13.50;3.45;;;11.50;99.90;;;;;;5123197;27;20142;-80
2023/03/13 06:22:09;;;;;;;10.43;3.13;;;11.60;99.90;;;;;;5109129;27;20077;-87
2023/03/13 06:24:37;;;;;;;13.90;4.22;;;10.90;99.90;;;;;;5092798;27;20051;-84
2023/03/13 06:27:03;;;;;;;16.55;3.90;;;11.70;99.90;;;;;;5091031;28;20031;-85
2023/03/13 06:29:29;;;;;;;11.88;3.50;;;10.90;99.90;;;;;;5092831;27;20045;-84
2023/03/13 06:31:54;;;;;;;8.35;3.83;;;12.50;99.90;;;;;;5090341;28;20051;-85
2023/03/13 06:34:20;;;;;;;7.50;3.92;;;11.10;99.90;;;;;;5090709;28;20479;-86
2023/03/13 06:36:46;;;;;;;7.13;3.60;;;12.80;99.90;;;;;;5093626;28;20039;-86
2023/03/13 06:39:12;;;;;;;8.20;4.22;;;11.40;99.90;;;;;;5105150;28;20067;-83
2023/03/13 06:41:38;;;;;;;13.60;4.45;;;12.60;99.90;;;;;;5092972;28;20058;-83
2023/03/13 06:44:04;;;;;;;12.00;4.78;;;12.00;99.90;;;;;;5110675;28;20400;-83
2023/03/13 06:46:30;;;;;;;13.48;4.70;;;11.90;99.90;;;;;;5107253;28;20031;-84
2023/03/13 06:49:04;;;;;;;6.28;3.25;;;12.00;99.90;;;;;;5104465;28;20043;-89
2023/03/13 06:51:34;;;;;;;12.48;4.30;;;11.90;99.90;;;;;;5118147;28;20062;-83
2023/03/13 06:54:02;;;;;;;11.57;3.60;;;11.30;99.90;;;;;;5108630;28;20051;-85
2023/03/13 06:56:27;;;;;;;10.70;3.25;;;12.80;99.90;;;;;;4382315;28;10000695;-84
2023/03/13 06:58:53;;;;;;;12.40;3.90;;;11.30;99.90;;;;;;5103386;27;20050;-83
2023/03/13 07:01:19;;;;;;;13.10;3.72;;;11.40;99.90;;;;;;5121077;27;20119;-86
2023/03/13 07:03:48;;;;;;;7.53;3.78;;;11.40;99.90;;;;;;5121644;28;20594;-87
2023/03/13 07:06:14;;;;;;;11.57;4.53;;;11.40;99.90;;;;;;5104040;28;20054;-87
2023/03/13 07:08:40;;;;;;;15.25;4.32;;;12.30;99.90;;;;;;5102362;27;20521;-83
2023/03/13 07:11:08;;;;;;;15.43;4.97;;;10.70;99.90;;;;;;5103528;28;20043;-86
2023/03/13 07:13:37;;;;;;;9.70;3.75;;;11.30;99.90;;;;;;5078230;28;20483;-90
2023/03/13 07:16:05;;;;;;;13.63;3.40;;;11.40;99.90;;;;;;5130172;28;20419;-83
2023/03/13 07:18:31;;;;;;;10.85;3.33;;;11.30;99.90;;;;;;5104059;28;20039;-87
2023/03/13 07:20:59;;;;;;;12.93;3.55;;;12.30;99.90;;;;;;5107171;28;20502;-87
2023/03/13 07:23:27;;;;;;;13.65;3.10;;;10.80;99.90;;;;;;5091594;28;20092;-85
2023/03/13 07:26:05;;;;;;;17.50;3.70;;;11.30;99.90;;;;;;5106813;28;20131;-83
2023/03/13 07:28:31;;;;;;;9.82;3.45;;;11.40;99.90;;;;;;5117989;28;20058;-85
2023/03/13 07:31:20;;;;;;;12.02;4.13;;;12.50;99.90;;;;;;5121209;28;20043;-87
2023/03/13 07:33:46;;;;;;;8.18;3.58;;;12.80;99.90;;;;;;5100437;28;20366;-91
2023/03/13 07:36:14;;;;;;;16.27;3.65;;;12.10;99.90;;;;;;5108118;28;20627;-87
2023/03/13 07:38:41;;;;;;;17.17;3.65;;;12.80;99.90;;;;;;5090856;28;20047;-88
2023/03/13 07:41:11;;;;;;;13.15;2.75;;;12.60;99.90;;;;;;5125024;27;20520;-89
2023/03/13 07:43:36;;;;;;;21.20;4.25;;;11.30;99.90;;;;;;5091599;27;20054;-83
2023/03/13 07:46:04;;;;;;;12.57;3.63;;;11.10;99.90;;;;;;5108005;27;20043;-86
2023/03/13 07:48:35;;;;;;;10.45;3.15;;;11.30;99.90;;;;;;5106793;27;20513;-85
2023/03/13 07:51:27;;;;;;;11.90;2.70;;;11.30;99.90;;;;;;5091137;27;20084;-86
2023/03/13 07:53:53;;;;;;;13.48;3.28;;;11.30;99.90;;;;;;5105720;27;20065;-86
2023/03/13 07:56:21;;;;;;;5.95;1.90;;;11.30;99.90;;;;;;5107846;27;20036;-88
2023/03/13 07:58:47;;;;;;;12.30;2.72;;;12.60;99.90;;;;;;5107755;27;20050;-86
2023/03/13 08:01:15;;;;;;;7.15;2.25;;;11.40;99.90;;;;;;5104003;27;20039;-86
2023/03/13 08:03:41;;;;;;;9.02;2.80;;;12.60;99.90;;;;;;5126640;27;20043;-86
2023/03/13 08:06:12;;;;;;;7.43;2.20;;;12.50;99.90;;;;;;5106403;28;20062;-86
2023/03/13 08:08:38;;;;;;;9.82;2.75;;;11.10;99.90;;;;;;5112457;27;20049;-85
2023/03/13 08:11:05;;;;;;;7.38;2.50;;;11.30;99.90;;;;;;5092629;27;20398;-85
2023/03/13 08:13:33;;;;;;;7.13;2.10;;;12.70;99.90;;;;;;5108887;27;20042;-85
2023/03/13 08:16:10;;;;;;;6.70;1.83;;;11.70;99.90;;;;;;5108413;27;20383;-85
2023/03/13 08:18:38;;;;;;;7.43;2.50;;;12.40;99.90;;;;;;5108410;27;20160;-86
2023/03/13 08:21:06;;;;;;;6.43;1.10;;;12.50;99.90;;;;;;5108282;27;20058;-83
2023/03/13 08:23:32;;;;;;;6.30;1.85;;;11.60;99.90;;;;;;5106366;27;20043;-85
2023/03/13 08:26:03;;;;;;;6.82;1.75;;;12.60;99.90;;;;;;5107211;27;20518;-85
2023/03/13 08:28:29;;;;;;;8.10;1.75;;;11.40;99.90;;;;;;5124024;27;20043;-85
2023/03/13 08:30:55;;;;;;;7.05;2.08;;;12.60;99.90;;;;;;5089884;27;20513;-87
2023/03/13 08:33:20;;;;;;;7.55;1.65;;;12.70;99.90;;;;;;5107624;27;20126;-86
2023/03/13 08:35:46;;;;;;;4.47;1.83;;;12.30;99.90;;;;;;5092177;27;20195;-82
2023/03/13 08:38:11;;;;;;;4.13;1.25;;;11.70;99.90;;;;;;5105009;27;20035;-82
2023/03/13 08:40:37;;;;;;;4.60;1.27;;;11.60;99.90;;;;;;5124554;27;20084;-82
2023/03/13 08:43:02;;;;;;;6.18;1.55;;;12.70;99.90;;;;;;5108504;27;20091;-81
2023/03/13 08:45:28;;;;;;;4.85;1.40;;;11.80;99.90;;;;;;5105900;27;20039;-83
2023/03/13 08:47:54;;;;;;;5.93;1.88;;;11.80;99.90;;;;;;5107123;27;20126;-82
2023/03/13 08:50:19;;;;;;;7.25;1.30;;;11.80;99.90;;;;;;5106385;27;20035;-82
2023/03/13 08:52:48;;;;;;;4.93;1.13;;;12.60;99.90;;;;;;5087770;27;20043;-82
2023/03/13 08:55:15;;;;;;;6.72;1.25;;;11.50;99.90;;;;;;5093854;27;20140;-81
2023/03/13 08:57:40;;;;;;;4.80;1.08;;;12.00;99.90;;;;;;5087595;27;20034;-83
2023/03/13 09:00:06;;;;;;;7.30;1.33;;;12.10;99.90;;;;;;5105646;27;20043;-81
2023/03/13 09:02:32;;;;;;;6.10;1.10;;;12.20;99.90;;;;;;5105512;27;20069;-82
2023/03/13 09:04:58;;;;;;;4.63;0.55;;;12.20;99.90;;;;;;5104446;27;20470;-85
2023/03/13 09:07:23;;;;;;;4.35;0.70;;;13.30;99.90;;;;;;5084427;27;20087;-83
2023/03/13 09:09:49;;;;;;;5.85;1.00;;;12.30;99.90;;;;;;5124399;27;20035;-84
2023/03/13 09:12:15;;;;;;;2.75;1.02;;;13.00;99.90;;;;;;5124785;27;20047;-86
2023/03/13 09:14:40;;;;;;;8.10;1.08;;;12.30;99.90;;;;;;5088261;27;20456;-84
2023/03/13 09:17:06;;;;;;;7.95;1.20;;;12.30;99.90;;;;;;5108354;27;21776;-84
2023/03/13 09:19:32;;;;;;;6.55;1.88;;;13.00;99.90;;;;;;5103714;27;20039;-85
2023/03/13 09:21:58;;;;;;;9.85;2.08;;;12.20;99.90;;;;;;5090361;27;20042;-85
2023/03/13 09:24:24;;;;;;;5.15;1.23;;;12.70;99.90;;;;;;5107289;27;20038;-84
2023/03/13 09:26:49;;;;;;;6.05;1.38;;;12.10;99.90;;;;;;5106328;27;20031;-83
2023/03/13 09:29:15;;;;;;;7.47;1.75;;;12.70;99.90;;;;;;5125450;27;20047;-86
2023/03/13 09:31:41;;;;;;;8.25;1.92;;;12.10;99.90;;;;;;5107665;27;20056;-84
2023/03/13 09:34:06;;;;;;;8.48;1.85;;;13.30;99.90;;;;;;5087521;27;20462;-85
2023/03/13 09:36:32;;;;;;;12.00;1.88;;;12.60;99.90;;;;;;5089057;27;20039;-85
2023/03/13 09:38:59;;;;;;;9.27;2.33;;;13.40;99.90;;;;;;5107082;27;20039;-85
2023/03/13 09:41:34;;;;;;;13.45;1.90;;;12.00;99.90;;;;;;5104747;27;20083;-85
2023/03/13 09:44:11;;;;;;;10.20;2.03;;;12.00;99.90;;;;;;5104502;27;20474;-85
2023/03/13 09:46:46;;;;;;;9.93;1.90;;;12.10;99.90;;;;;;5105689;27;20602;-85
2023/03/13 09:49:12;;;;;;;10.73;2.60;;;12.10;99.90;;;;;;5089931;27;20063;-85
2023/03/13 09:51:41;;;;;;;20.92;2.92;;;12.30;99.90;;;;;;5090636;27;20085;-85
2023/03/13 09:54:13;;;;;;;9.40;1.70;;;13.10;99.90;;;;;;5104764;27;20062;-86
2023/03/13 09:56:52;;;;;;;13.88;3.42;;;12.30;99.90;;;;;;5089085;27;20394;-85
2023/03/13 09:59:28;;;;;;;7.93;2.22;;;12.70;99.90;;;;;;5089012;27;20482;-85
2023/03/13 10:01:58;;;;;;;10.45;2.72;;;11.50;99.90;;;;;;5104389;27;20160;-87
2023/03/13 10:04:44;;;;;;;11.23;2.78;;;12.50;99.90;;;;;;5088867;27;20564;-88
2023/03/13 10:07:11;;;;;;;17.05;2.85;;;13.60;99.90;;;;;;5103429;27;20051;-86
2023/03/13 10:09:38;;;;;;;10.60;2.08;;;12.20;99.90;;;;;;5105631;27;20031;-86
2023/03/13 10:12:21;;;;;;;11.93;2.75;;;12.40;99.90;;;;;;5100487;28;20087;-85
2023/03/13 10:15:17;;;;;;;20.25;3.13;;;12.60;99.90;;;;;;5088500;27;20047;-85
2023/03/13 10:17:43;;;;;;;10.15;2.58;;;12.80;99.90;;;;;;5089630;27;20093;-85
2023/03/13 10:20:27;;;;;;;10.63;1.77;;;13.90;99.90;;;;;;5103480;27;20166;-86
2023/03/13 10:23:04;;;;;;;18.75;3.70;;;12.90;99.90;;;;;;5109617;27;20043;-84
2023/03/13 10:25:35;;;;;;;19.85;3.42;;;13.00;99.90;;;;;;5127489;27;20034;-84
2023/03/13 10:28:01;;;;;;;21.98;4.00;;;14.00;99.90;;;;;;5127153;27;20047;-87
2023/03/13 10:30:34;;;;;;;11.40;2.67;;;13.10;99.90;;;;;;5110597;28;20042;-87
2023/03/13 10:33:22;;;;;;;18.80;3.40;;;13.10;99.90;;;;;;5112416;27;20091;-83
2023/03/13 10:36:02;;;;;;;14.77;3.38;;;13.20;99.90;;;;;;5114283;27;20100;-86
2023/03/13 10:38:31;;;;;;;18.25;3.63;;;13.30;99.90;;;;;;5105868;27;20047;-84
2023/03/13 10:41:03;;;;;;;18.35;3.53;;;13.30;99.90;;;;;;5105000;28;20035;-86
2023/03/13 10:43:29;;;;;;;16.38;2.45;;;13.70;99.90;;;;;;5123140;27;20554;-87
2023/03/13 10:45:55;;;;;;;11.98;2.58;;;14.50;99.90;;;;;;5126032;27;20039;-84
2023/03/13 10:48:28;;;;;;;14.43;3.58;;;14.80;99.90;;;;;;5123108;27;20043;-87
2023/03/13 10:50:57;;;;;;;17.92;2.95;;;13.50;99.90;;;;;;5105427;28;20126;-82
2023/03/13 10:53:28;;;;;;;21.30;3.40;;;14.50;99.90;;;;;;5086798;27;20387;-83
2023/03/13 10:56:01;;;;;;;14.52;2.65;;;13.40;99.90;;;;;;5080308;28;20039;-86
2023/03/13 10:58:34;;;;;;;24.75;4.38;;;13.30;99.90;;;;;;5086420;28;20185;-87
2023/03/13 11:01:24;;;;;;;26.80;4.65;;;13.40;99.90;;;;;;5103851;27;20498;-85
2023/03/13 11:03:52;;;;;;;15.98;4.60;;;13.30;99.90;;;;;;5105381;28;20388;-85
2023/03/13 11:06:31;;;;;;;21.30;4.32;;;13.30;99.90;;;;;;5104149;27;20047;-83
2023/03/13 11:09:11;;;;;;;16.50;3.45;;;13.30;99.90;;;;;;5122311;27;20390;-88
2023/03/13 11:11:50;;;;;;;17.85;2.85;;;13.30;99.90;;;;;;5103987;28;20155;-85
2023/03/13 11:14:24;;;;;;;12.00;2.13;;;12.90;99.90;;;;;;5103968;27;20499;-86
2023/03/13 11:17:22;;;;;;;8.93;1.77;;;13.50;99.90;;;;;;5127089;27;20042;-83
2023/03/13 11:19:59;;;;;;;15.13;2.65;;;13.60;99.90;;;;;;5106600;27;20159;-84
2023/03/13 11:22:38;;;;;;;15.77;3.47;;;13.50;99.90;;;;;;5112535;27;20173;-86
2023/03/13 11:25:19;;;;;;;10.07;2.17;;;13.50;99.90;;;;;;5090362;28;20044;-84
2023/03/13 11:28:03;;;;;;;11.40;2.50;;;13.70;99.90;;;;;;4748454;27;10000453;-85
2023/03/13 11:31:10;;;;;;;15.33;2.20;;;13.60;99.90;;;;;;5109330;27;20141;-88
2023/03/13 11:33:49;;;;;;;8.02;1.75;;;13.50;99.90;;;;;;5099022;27;20051;-91
2023/03/13 11:36:32;;;;;;;9.30;1.67;;;13.50;99.90;;;;;;5093821;27;20035;-90
2023/03/13 11:39:30;;;;;;;10.43;2.13;;;13.60;99.90;;;;;;5084821;27;20435;-85
2023/03/13 11:42:09;;;;;;;6.45;2.17;;;13.70;99.90;;;;;;5100211;27;20044;-83
2023/03/13 11:44:44;;;;;;;10.77;2.10;;;13.70;99.90;;;;;;5110307;27;20039;-84
2023/03/13 11:47:12;;;;;;;8.18;1.50;;;13.80;99.90;;;;;;5079430;28;20051;-85
2023/03/13 11:50:27;;;;;;;10.85;2.05;;;13.80;99.90;;;;;;5091221;27;20039;-85
2023/03/13 11:53:23;;;;;;;7.57;1.42;;;13.80;99.90;;;;;;5023785;28;20078;-82
2023/03/13 11:56:07;;;;;;;7.80;1.23;;;13.80;99.90;;;;;;5046013;28;20106;-84
2023/03/13 11:59:00;;;;;;;5.72;1.30;;;13.90;99.90;;;;;;5119783;27;20430;-85
2023/03/13 12:01:31;;;;;;;13.63;1.63;;;14.00;99.90;;;;;;5091658;28;20055;-87
2023/03/13 12:04:04;;;;;;;11.10;2.00;;;14.10;99.90;;;;;;5109407;27;20084;-86
2023/03/13 12:06:39;;;;;;;13.40;2.10;;;14.10;99.90;;;;;;5112008;27;20125;-83
2023/03/13 12:09:14;;;;;;;8.10;1.55;;;15.20;99.90;;;;;;5115891;27;20042;-87
2023/03/13 12:12:03;;;;;;;7.63;1.88;;;14.00;99.90;;;;;;5106898;27;20043;-86
2023/03/13 12:14:41;;;;;;;10.68;2.15;;;14.00;99.90;;;;;;5110667;27;20522;-87
2023/03/13 12:17:14;;;;;;;12.43;3.05;;;14.00;99.90;;;;;;5088378;28;20542;-87
2023/03/13 12:19:44;;;;;;;12.98;2.38;;;14.80;99.90;;;;;;5110685;27;20487;-86
2023/03/13 12:22:26;;;;;;;13.45;2.15;;;14.10;99.90;;;;;;5094724;27;20030;-85
2023/03/13 12:25:04;;;;;;;18.50;3.40;;;14.10;99.90;;;;;;5125326;27;20031;-85
2023/03/13 12:27:38;;;;;;;17.42;3.42;;;14.10;99.90;;;;;;5090101;27;20061;-84
2023/03/13 12:30:26;;;;;;;16.75;2.28;;;14.10;99.90;;;;;;5107661;27;20047;-84
2023/03/13 12:33:04;;;;;;;11.82;2.75;;;14.10;99.90;;;;;;5094610;27;20039;-83
2023/03/13 12:35:34;;;;;;;12.15;2.33;;;14.20;99.90;;;;;;5097888;27;20066;-84
2023/03/13 12:38:04;;;;;;;19.02;3.90;;;14.50;99.90;;;;;;5110302;27;20122;-86
2023/03/13 12:41:01;;;;;;;16.58;3.08;;;14.30;99.90;;;;;;5111495;27;20354;-83
2023/03/13 12:43:30;;;;;;;16.75;3.03;;;14.50;99.90;;;;;;5124393;27;20498;-84
2023/03/13 12:45:56;;;;;;;15.40;2.25;;;14.50;99.90;;;;;;5112332;27;20039;-83
2023/03/13 12:48:59;;;;;;;18.20;3.50;;;14.60;99.90;;;;;;5110816;27;20046;-83
2023/03/13 12:51:39;;;;;;;22.15;4.70;;;14.60;99.90;;;;;;5091632;27;20431;-84
2023/03/13 12:54:48;;;;;;;12.05;3.13;;;14.60;99.90;;;;;;5111496;27;20043;-83
2023/03/13 12:57:53;;;;;;;13.25;2.78;;;14.70;99.90;;;;;;5088395;27;20039;-82
2023/03/13 13:00:25;;;;;;;16.33;3.85;;;14.70;99.90;;;;;;5124553;27;20039;-84